sensor_id;sensor_type;location;lat;lon;timestamp;temperature;humidity
41904;DHT22;27586;51.124;4.182;2023-05-10T00:02:07;13.80;99.90
41904;DHT22;27586;51.124;4.182;2023-05-10T00:04:32;13.90;99.90
41904;DHT22;27586;51.124;4.182;2023-05-10T00:06:58;13.90;99.90
41904;DHT22;27586;51.124;4.182;2023-05-10T00:09:24;13.90;99.90
41904;DHT22;27586;51.124;4.182;2023-05-10T00:11:49;13.90;99.90
41904;DHT22;27586;51.124;4.182;2023-05-10T00:14:15;13.90;99.90
41904;DHT22;27586;51.124;4.182;2023-05-10T00:16:41;13.90;99.90
41904;DHT22;27586;51.124;4.182;2023-05-10T00:19:07;13.90;99.90
41904;DHT22;27586;51.124;4.182;2023-05-10T00:21:32;14.00;99.90
41904;DHT22;27586;51.124;4.182;2023-05-10T00:23:59;14.00;99.90
41904;DHT22;27586;51.124;4.182;2023-05-10T00:26:25;14.00;99.90
41904;DHT22;27586;51.124;4.182;2023-05-10T00:31:39;13.90;99.90
41904;DHT22;27586;51.124;4.182;2023-05-10T00:34:04;13.90;99.90
41904;DHT22;27586;51.124;4.182;2023-05-10T00:36:30;13.90;99.90
41904;DHT22;27586;51.124;4.182;2023-05-10T00:38:56;14.00;99.90
41904;DHT22;27586;51.124;4.182;2023-05-10T00:41:22;13.80;99.90
41904;DHT22;27586;51.124;4.182;2023-05-10T00:43:48;13.90;99.90
41904;DHT22;27586;51.124;4.182;2023-05-10T00:46:14;13.80;99.90
41904;DHT22;27586;51.124;4.182;2023-05-10T00:48:40;13.90;99.90
41904;DHT22;27586;51.124;4.182;2023-05-10T00:51:06;13.90;99.90
41904;DHT22;27586;51.124;4.182;2023-05-10T00:53:32;13.90;99.90
41904;DHT22;27586;51.124;4.182;2023-05-10T00:55:58;14.00;99.90
41904;DHT22;27586;51.124;4.182;2023-05-10T00:58:25;13.90;99.90
41904;DHT22;27586;51.124;4.182;2023-05-10T01:00:54;13.90;99.90
41904;DHT22;27586;51.124;4.182;2023-05-10T01:03:21;13.90;99.90
41904;DHT22;27586;51.124;4.182;2023-05-10T01:05:47;13.90;99.90
41904;DHT22;27586;51.124;4.182;2023-05-10T01:08:12;13.80;99.90
41904;DHT22;27586;51.124;4.182;2023-05-10T01:10:38;13.80;99.90
41904;DHT22;27586;51.124;4.182;2023-05-10T01:13:04;13.70;99.90
41904;DHT22;27586;51.124;4.182;2023-05-10T01:15:30;13.80;99.90
41904;DHT22;27586;51.124;4.182;2023-05-10T01:17:56;13.80;99.90
41904;DHT22;27586;51.124;4.182;2023-05-10T01:20:22;13.80;99.90
41904;DHT22;27586;51.124;4.182;2023-05-10T01:25:57;13.70;99.90
41904;DHT22;27586;51.124;4.182;2023-05-10T01:34:22;13.70;99.90
41904;DHT22;27586;51.124;4.182;2023-05-10T01:37:04;13.80;99.90
41904;DHT22;27586;51.124;4.182;2023-05-10T01:39:52;13.80;99.90
41904;DHT22;27586;51.124;4.182;2023-05-10T01:42:23;13.70;99.90
41904;DHT22;27586;51.124;4.182;2023-05-10T01:45:28;13.80;99.90
41904;DHT22;27586;51.124;4.182;2023-05-10T01:50:31;13.80;99.90
41904;DHT22;27586;51.124;4.182;2023-05-10T01:52:59;13.80;99.90
41904;DHT22;27586;51.124;4.182;2023-05-10T01:55:29;13.80;99.90
41904;DHT22;27586;51.124;4.182;2023-05-10T01:58:07;13.70;99.90
41904;DHT22;27586;51.124;4.182;2023-05-10T02:00:34;13.80;99.90
41904;DHT22;27586;51.124;4.182;2023-05-10T02:03:04;13.80;99.90
41904;DHT22;27586;51.124;4.182;2023-05-10T02:05:32;13.80;99.90
41904;DHT22;27586;51.124;4.182;2023-05-10T02:07:59;13.80;99.90
41904;DHT22;27586;51.124;4.182;2023-05-10T02:10:27;13.80;99.90
41904;DHT22;27586;51.124;4.182;2023-05-10T02:12:55;13.80;99.90
41904;DHT22;27586;51.124;4.182;2023-05-10T02:15:24;13.80;99.90
41904;DHT22;27586;51.124;4.182;2023-05-10T02:17:54;13.80;99.90
41904;DHT22;27586;51.124;4.182;2023-05-10T02:20:20;13.90;99.90
41904;DHT22;27586;51.124;4.182;2023-05-10T02:22:49;13.90;99.90
41904;DHT22;27586;51.124;4.182;2023-05-10T02:25:16;13.90;99.90
41904;DHT22;27586;51.124;4.182;2023-05-10T02:27:44;13.90;99.90
41904;DHT22;27586;51.124;4.182;2023-05-10T02:30:10;13.90;99.90
41904;DHT22;27586;51.124;4.182;2023-05-10T02:32:36;14.00;99.90
41904;DHT22;27586;51.124;4.182;2023-05-10T02:35:03;14.00;99.90
41904;DHT22;27586;51.124;4.182;2023-05-10T02:37:29;14.00;99.90
41904;DHT22;27586;51.124;4.182;2023-05-10T02:39:56;13.90;99.90
41904;DHT22;27586;51.124;4.182;2023-05-10T02:42:29;13.90;99.90
41904;DHT22;27586;51.124;4.182;2023-05-10T02:45:01;13.90;99.90
41904;DHT22;27586;51.124;4.182;2023-05-10T02:47:28;13.90;99.90
41904;DHT22;27586;51.124;4.182;2023-05-10T02:49:55;13.80;99.90
41904;DHT22;27586;51.124;4.182;2023-05-10T02:52:27;13.70;99.90
41904;DHT22;27586;51.124;4.182;2023-05-10T02:54:58;13.70;99.90
41904;DHT22;27586;51.124;4.182;2023-05-10T02:57:28;13.70;99.90
41904;DHT22;27586;51.124;4.182;2023-05-10T02:59:54;13.70;99.90
41904;DHT22;27586;51.124;4.182;2023-05-10T03:02:20;13.70;99.90
41904;DHT22;27586;51.124;4.182;2023-05-10T03:04:46;13.70;99.90
41904;DHT22;27586;51.124;4.182;2023-05-10T03:07:12;13.70;99.90
41904;DHT22;27586;51.124;4.182;2023-05-10T03:09:38;13.70;99.90
41904;DHT22;27586;51.124;4.182;2023-05-10T03:18:07;13.70;99.90
41904;DHT22;27586;51.124;4.182;2023-05-10T03:20:49;13.70;99.90
41904;DHT22;27586;51.124;4.182;2023-05-10T03:23:27;13.70;99.90
41904;DHT22;27586;51.124;4.182;2023-05-10T03:25:55;13.70;99.90
41904;DHT22;27586;51.124;4.182;2023-05-10T03:28:23;13.60;99.90
41904;DHT22;27586;51.124;4.182;2023-05-10T03:30:52;13.70;99.90
41904;DHT22;27586;51.124;4.182;2023-05-10T03:33:18;13.60;99.90
41904;DHT22;27586;51.124;4.182;2023-05-10T03:35:43;13.70;99.90
41904;DHT22;27586;51.124;4.182;2023-05-10T03:38:11;13.70;99.90
41904;DHT22;27586;51.124;4.182;2023-05-10T03:40:37;13.70;99.90
41904;DHT22;27586;51.124;4.182;2023-05-10T03:43:03;13.70;99.90
41904;DHT22;27586;51.124;4.182;2023-05-10T03:45:29;13.70;99.90
41904;DHT22;27586;51.124;4.182;2023-05-10T03:47:57;13.70;99.90
41904;DHT22;27586;51.124;4.182;2023-05-10T03:50:22;13.60;99.90
41904;DHT22;27586;51.124;4.182;2023-05-10T03:52:48;13.70;99.90
41904;DHT22;27586;51.124;4.182;2023-05-10T03:55:14;13.60;99.90
41904;DHT22;27586;51.124;4.182;2023-05-10T03:57:40;13.60;99.90
41904;DHT22;27586;51.124;4.182;2023-05-10T04:00:06;13.60;99.90
41904;DHT22;27586;51.124;4.182;2023-05-10T04:02:31;13.60;99.90
41904;DHT22;27586;51.124;4.182;2023-05-10T04:04:57;13.60;99.90
41904;DHT22;27586;51.124;4.182;2023-05-10T04:07:23;13.60;99.90
41904;DHT22;27586;51.124;4.182;2023-05-10T04:09:49;13.50;99.90
41904;DHT22;27586;51.124;4.182;2023-05-10T04:12:14;13.50;99.90
41904;DHT22;27586;51.124;4.182;2023-05-10T04:14:40;13.50;99.90
41904;DHT22;27586;51.124;4.182;2023-05-10T04:17:06;13.50;99.90
41904;DHT22;27586;51.124;4.182;2023-05-10T04:19:32;13.50;99.90
41904;DHT22;27586;51.124;4.182;2023-05-10T04:21:58;13.50;99.90
41904;DHT22;27586;51.124;4.182;2023-05-10T04:24:24;13.50;99.90
41904;DHT22;27586;51.124;4.182;2023-05-10T04:26:50;13.50;99.90
41904;DHT22;27586;51.124;4.182;2023-05-10T04:29:16;13.50;99.90
41904;DHT22;27586;51.124;4.182;2023-05-10T04:31:41;13.50;99.90
41904;DHT22;27586;51.124;4.182;2023-05-10T04:34:07;13.50;99.90
41904;DHT22;27586;51.124;4.182;2023-05-10T04:36:32;13.60;99.90
41904;DHT22;27586;51.124;4.182;2023-05-10T04:39:00;13.60;99.90
41904;DHT22;27586;51.124;4.182;2023-05-10T04:41:28;13.60;99.90
41904;DHT22;27586;51.124;4.182;2023-05-10T04:43:54;13.60;99.90
41904;DHT22;27586;51.124;4.182;2023-05-10T04:46:19;13.60;99.90
41904;DHT22;27586;51.124;4.182;2023-05-10T04:48:45;13.60;99.90
41904;DHT22;27586;51.124;4.182;2023-05-10T04:51:11;13.60;99.90
41904;DHT22;27586;51.124;4.182;2023-05-10T04:53:37;13.60;99.90
41904;DHT22;27586;51.124;4.182;2023-05-10T04:56:03;13.70;99.90
41904;DHT22;27586;51.124;4.182;2023-05-10T04:58:29;13.70;99.90
41904;DHT22;27586;51.124;4.182;2023-05-10T05:00:54;13.60;99.90
41904;DHT22;27586;51.124;4.182;2023-05-10T05:03:20;13.60;99.90
41904;DHT22;27586;51.124;4.182;2023-05-10T05:05:46;13.70;99.90
41904;DHT22;27586;51.124;4.182;2023-05-10T05:08:11;13.70;99.90
41904;DHT22;27586;51.124;4.182;2023-05-10T05:10:37;13.70;99.90
41904;DHT22;27586;51.124;4.182;2023-05-10T05:13:02;13.70;99.90
41904;DHT22;27586;51.124;4.182;2023-05-10T05:15:28;13.70;99.90
41904;DHT22;27586;51.124;4.182;2023-05-10T05:17:55;13.80;99.90
41904;DHT22;27586;51.124;4.182;2023-05-10T05:20:20;13.70;99.90
41904;DHT22;27586;51.124;4.182;2023-05-10T05:22:46;13.70;99.90
41904;DHT22;27586;51.124;4.182;2023-05-10T05:25:12;13.80;99.90
41904;DHT22;27586;51.124;4.182;2023-05-10T05:27:38;13.80;99.90
41904;DHT22;27586;51.124;4.182;2023-05-10T05:30:04;13.80;99.90
41904;DHT22;27586;51.124;4.182;2023-05-10T05:32:29;13.80;99.90
41904;DHT22;27586;51.124;4.182;2023-05-10T05:34:56;13.80;99.90
41904;DHT22;27586;51.124;4.182;2023-05-10T05:37:22;13.90;99.90
41904;DHT22;27586;51.124;4.182;2023-05-10T05:39:48;13.90;99.90
41904;DHT22;27586;51.124;4.182;2023-05-10T05:42:14;13.90;99.90
41904;DHT22;27586;51.124;4.182;2023-05-10T05:44:41;13.90;99.90
41904;DHT22;27586;51.124;4.182;2023-05-10T05:47:07;14.00;99.90
41904;DHT22;27586;51.124;4.182;2023-05-10T05:49:33;14.00;99.90
41904;DHT22;27586;51.124;4.182;2023-05-10T05:51:59;14.00;99.90
41904;DHT22;27586;51.124;4.182;2023-05-10T05:54:26;14.00;99.90
41904;DHT22;27586;51.124;4.182;2023-05-10T05:56:54;14.00;99.90
41904;DHT22;27586;51.124;4.182;2023-05-10T05:59:21;14.00;99.90
41904;DHT22;27586;51.124;4.182;2023-05-10T06:01:47;14.00;99.90
41904;DHT22;27586;51.124;4.182;2023-05-10T06:04:12;14.10;99.90
41904;DHT22;27586;51.124;4.182;2023-05-10T06:06:38;14.00;99.90
41904;DHT22;27586;51.124;4.182;2023-05-10T06:09:04;14.10;99.90
41904;DHT22;27586;51.124;4.182;2023-05-10T06:11:29;14.10;99.90
41904;DHT22;27586;51.124;4.182;2023-05-10T06:13:58;14.10;99.90
41904;DHT22;27586;51.124;4.182;2023-05-10T06:16:23;14.10;99.90
41904;DHT22;27586;51.124;4.182;2023-05-10T06:18:49;14.10;99.90
41904;DHT22;27586;51.124;4.182;2023-05-10T06:21:14;14.20;99.90
41904;DHT22;27586;51.124;4.182;2023-05-10T06:23:41;14.40;99.90
41904;DHT22;27586;51.124;4.182;2023-05-10T06:26:07;14.40;99.90
41904;DHT22;27586;51.124;4.182;2023-05-10T06:28:33;14.40;99.90
41904;DHT22;27586;51.124;4.182;2023-05-10T06:30:59;14.30;99.90
41904;DHT22;27586;51.124;4.182;2023-05-10T06:33:25;14.30;99.90
41904;DHT22;27586;51.124;4.182;2023-05-10T06:35:51;14.40;99.90
41904;DHT22;27586;51.124;4.182;2023-05-10T06:38:16;14.40;99.90
41904;DHT22;27586;51.124;4.182;2023-05-10T06:40:42;14.40;99.90
41904;DHT22;27586;51.124;4.182;2023-05-10T06:43:09;14.40;99.90
41904;DHT22;27586;51.124;4.182;2023-05-10T06:45:35;14.40;99.90
41904;DHT22;27586;51.124;4.182;2023-05-10T06:48:01;14.30;99.90
41904;DHT22;27586;51.124;4.182;2023-05-10T06:50:27;14.30;99.90
41904;DHT22;27586;51.124;4.182;2023-05-10T06:52:52;14.30;99.90
41904;DHT22;27586;51.124;4.182;2023-05-10T06:55:18;14.30;99.90
41904;DHT22;27586;51.124;4.182;2023-05-10T06:57:44;14.40;99.90
41904;DHT22;27586;51.124;4.182;2023-05-10T07:00:09;14.50;99.90
41904;DHT22;27586;51.124;4.182;2023-05-10T07:02:35;14.50;99.90
41904;DHT22;27586;51.124;4.182;2023-05-10T07:05:01;14.60;99.90
41904;DHT22;27586;51.124;4.182;2023-05-10T07:07:27;14.70;99.90
41904;DHT22;27586;51.124;4.182;2023-05-10T07:09:53;14.70;99.90
41904;DHT22;27586;51.124;4.182;2023-05-10T07:12:19;14.80;99.90
41904;DHT22;27586;51.124;4.182;2023-05-10T07:14:45;14.80;99.90
41904;DHT22;27586;51.124;4.182;2023-05-10T07:17:11;14.80;99.90
41904;DHT22;27586;51.124;4.182;2023-05-10T07:19:36;14.90;99.90
41904;DHT22;27586;51.124;4.182;2023-05-10T07:22:02;15.00;99.90
41904;DHT22;27586;51.124;4.182;2023-05-10T07:24:28;15.00;99.90
41904;DHT22;27586;51.124;4.182;2023-05-10T07:26:53;15.10;99.90
41904;DHT22;27586;51.124;4.182;2023-05-10T07:29:19;15.10;99.90
41904;DHT22;27586;51.124;4.182;2023-05-10T07:31:45;15.00;99.90
41904;DHT22;27586;51.124;4.182;2023-05-10T07:34:10;15.00;99.90
41904;DHT22;27586;51.124;4.182;2023-05-10T07:36:36;15.10;99.90
41904;DHT22;27586;51.124;4.182;2023-05-10T07:39:02;15.20;99.90
41904;DHT22;27586;51.124;4.182;2023-05-10T07:41:27;15.50;99.90
41904;DHT22;27586;51.124;4.182;2023-05-10T07:43:53;15.70;99.90
41904;DHT22;27586;51.124;4.182;2023-05-10T07:46:18;15.70;99.90
41904;DHT22;27586;51.124;4.182;2023-05-10T07:48:47;15.80;99.90
41904;DHT22;27586;51.124;4.182;2023-05-10T07:51:13;15.70;99.90
41904;DHT22;27586;51.124;4.182;2023-05-10T07:53:39;15.70;99.90
41904;DHT22;27586;51.124;4.182;2023-05-10T07:56:28;15.70;99.90
41904;DHT22;27586;51.124;4.182;2023-05-10T07:58:58;15.70;99.90
41904;DHT22;27586;51.124;4.182;2023-05-10T08:01:25;15.70;99.90
41904;DHT22;27586;51.124;4.182;2023-05-10T08:03:51;15.90;99.90
41904;DHT22;27586;51.124;4.182;2023-05-10T08:06:19;16.10;99.90
41904;DHT22;27586;51.124;4.182;2023-05-10T08:08:46;16.30;99.90
41904;DHT22;27586;51.124;4.182;2023-05-10T08:11:15;16.40;99.90
41904;DHT22;27586;51.124;4.182;2023-05-10T08:13:41;16.50;99.90
41904;DHT22;27586;51.124;4.182;2023-05-10T08:16:07;16.50;99.90
41904;DHT22;27586;51.124;4.182;2023-05-10T08:18:33;16.40;99.90
41904;DHT22;27586;51.124;4.182;2023-05-10T08:20:58;16.40;99.90
41904;DHT22;27586;51.124;4.182;2023-05-10T08:23:24;16.50;99.90
41904;DHT22;27586;51.124;4.182;2023-05-10T08:25:49;16.80;99.90
41904;DHT22;27586;51.124;4.182;2023-05-10T08:28:15;17.10;99.90
41904;DHT22;27586;51.124;4.182;2023-05-10T08:30:41;17.30;99.90
41904;DHT22;27586;51.124;4.182;2023-05-10T08:33:06;17.50;99.90
41904;DHT22;27586;51.124;4.182;2023-05-10T08:35:32;17.50;99.90
41904;DHT22;27586;51.124;4.182;2023-05-10T08:37:59;17.00;99.90
41904;DHT22;27586;51.124;4.182;2023-05-10T08:40:26;17.00;99.90
41904;DHT22;27586;51.124;4.182;2023-05-10T08:42:59;16.90;99.90
41904;DHT22;27586;51.124;4.182;2023-05-10T08:45:27;16.80;99.90
41904;DHT22;27586;51.124;4.182;2023-05-10T08:47:56;16.70;99.90
41904;DHT22;27586;51.124;4.182;2023-05-10T08:50:22;16.50;99.90
41904;DHT22;27586;51.124;4.182;2023-05-10T08:52:53;16.40;99.90
41904;DHT22;27586;51.124;4.182;2023-05-10T08:55:20;16.20;99.90
41904;DHT22;27586;51.124;4.182;2023-05-10T08:57:48;16.00;99.90
41904;DHT22;27586;51.124;4.182;2023-05-10T09:00:14;15.80;99.90
41904;DHT22;27586;51.124;4.182;2023-05-10T09:02:42;15.80;99.90
41904;DHT22;27586;51.124;4.182;2023-05-10T09:05:08;15.70;99.90
41904;DHT22;27586;51.124;4.182;2023-05-10T09:07:35;15.50;99.90
41904;DHT22;27586;51.124;4.182;2023-05-10T09:10:01;15.40;99.90
41904;DHT22;27586;51.124;4.182;2023-05-10T09:12:27;15.30;99.90
41904;DHT22;27586;51.124;4.182;2023-05-10T09:14:54;15.30;99.90
41904;DHT22;27586;51.124;4.182;2023-05-10T09:17:21;15.20;99.90
41904;DHT22;27586;51.124;4.182;2023-05-10T09:19:48;15.10;99.90
41904;DHT22;27586;51.124;4.182;2023-05-10T09:22:14;15.00;99.90
41904;DHT22;27586;51.124;4.182;2023-05-10T09:24:40;15.10;99.90
41904;DHT22;27586;51.124;4.182;2023-05-10T09:27:10;15.10;99.90
41904;DHT22;27586;51.124;4.182;2023-05-10T09:29:40;15.20;99.90
41904;DHT22;27586;51.124;4.182;2023-05-10T09:32:05;15.30;99.90
41904;DHT22;27586;51.124;4.182;2023-05-10T09:34:32;15.50;99.90
41904;DHT22;27586;51.124;4.182;2023-05-10T09:37:00;15.70;99.90
41904;DHT22;27586;51.124;4.182;2023-05-10T09:39:52;15.90;99.90
41904;DHT22;27586;51.124;4.182;2023-05-10T09:42:19;16.00;99.90
41904;DHT22;27586;51.124;4.182;2023-05-10T09:44:45;16.20;99.90
41904;DHT22;27586;51.124;4.182;2023-05-10T09:47:17;16.40;99.90
41904;DHT22;27586;51.124;4.182;2023-05-10T09:49:43;16.50;99.90
41904;DHT22;27586;51.124;4.182;2023-05-10T09:52:09;16.20;99.90
41904;DHT22;27586;51.124;4.182;2023-05-10T09:54:35;16.10;99.90
41904;DHT22;27586;51.124;4.182;2023-05-10T09:57:01;16.20;99.90
41904;DHT22;27586;51.124;4.182;2023-05-10T09:59:28;16.40;99.90
41904;DHT22;27586;51.124;4.182;2023-05-10T10:01:58;16.50;99.90
41904;DHT22;27586;51.124;4.182;2023-05-10T10:04:24;16.70;99.90
41904;DHT22;27586;51.124;4.182;2023-05-10T10:07:03;16.70;99.90
41904;DHT22;27586;51.124;4.182;2023-05-10T10:09:29;16.70;99.90
41904;DHT22;27586;51.124;4.182;2023-05-10T10:11:55;16.70;99.90
41904;DHT22;27586;51.124;4.182;2023-05-10T10:14:22;16.80;99.90
41904;DHT22;27586;51.124;4.182;2023-05-10T10:16:50;17.00;99.90
41904;DHT22;27586;51.124;4.182;2023-05-10T10:19:18;17.10;99.90
41904;DHT22;27586;51.124;4.182;2023-05-10T10:21:44;17.20;99.90
41904;DHT22;27586;51.124;4.182;2023-05-10T10:24:09;17.10;99.90
41904;DHT22;27586;51.124;4.182;2023-05-10T10:26:36;17.10;99.90
41904;DHT22;27586;51.124;4.182;2023-05-10T10:29:21;17.10;99.90
41904;DHT22;27586;51.124;4.182;2023-05-10T10:32:03;16.90;99.90
41904;DHT22;27586;51.124;4.182;2023-05-10T10:34:32;16.80;99.90
41904;DHT22;27586;51.124;4.182;2023-05-10T10:36:58;16.70;99.90
41904;DHT22;27586;51.124;4.182;2023-05-10T10:39:28;17.00;99.90
41904;DHT22;27586;51.124;4.182;2023-05-10T10:41:56;16.90;99.90
41904;DHT22;27586;51.124;4.182;2023-05-10T10:44:23;16.80;99.90
41904;DHT22;27586;51.124;4.182;2023-05-10T10:52:42;16.70;99.90
41904;DHT22;27586;51.124;4.182;2023-05-10T10:55:13;16.50;99.90
41904;DHT22;27586;51.124;4.182;2023-05-10T10:57:53;16.50;99.90
41904;DHT22;27586;51.124;4.182;2023-05-10T11:00:35;16.60;99.90
41904;DHT22;27586;51.124;4.182;2023-05-10T11:03:09;16.60;99.90
41904;DHT22;27586;51.124;4.182;2023-05-10T11:05:43;16.70;99.90
41904;DHT22;27586;51.124;4.182;2023-05-10T11:08:30;16.70;99.90
41904;DHT22;27586;51.124;4.182;2023-05-10T11:13:37;16.70;99.90
41904;DHT22;27586;51.124;4.182;2023-05-10T11:16:18;16.60;99.90
41904;DHT22;27586;51.124;4.182;2023-05-10T11:18:56;16.70;99.90
41904;DHT22;27586;51.124;4.182;2023-05-10T11:21:22;16.80;99.90
41904;DHT22;27586;51.124;4.182;2023-05-10T11:23:56;16.90;99.90
41904;DHT22;27586;51.124;4.182;2023-05-10T11:26:23;16.80;99.90
41904;DHT22;27586;51.124;4.182;2023-05-10T11:28:53;16.70;99.90
41904;DHT22;27586;51.124;4.182;2023-05-10T11:31:21;16.70;99.90
41904;DHT22;27586;51.124;4.182;2023-05-10T11:33:51;16.80;99.90
41904;DHT22;27586;51.124;4.182;2023-05-10T11:36:18;16.80;99.90
41904;DHT22;27586;51.124;4.182;2023-05-10T11:38:44;16.90;99.90
41904;DHT22;27586;51.124;4.182;2023-05-10T11:41:11;17.00;99.90
41904;DHT22;27586;51.124;4.182;2023-05-10T11:43:39;17.20;99.90
41904;DHT22;27586;51.124;4.182;2023-05-10T11:46:10;17.60;99.90
41904;DHT22;27586;51.124;4.182;2023-05-10T11:48:39;17.70;99.90
41904;DHT22;27586;51.124;4.182;2023-05-10T11:51:10;17.90;99.90
41904;DHT22;27586;51.124;4.182;2023-05-10T11:53:36;17.80;99.90
41904;DHT22;27586;51.124;4.182;2023-05-10T11:56:08;17.60;99.90
41904;DHT22;27586;51.124;4.182;2023-05-10T11:58:34;17.40;99.90
41904;DHT22;27586;51.124;4.182;2023-05-10T12:01:01;17.40;99.90
41904;DHT22;27586;51.124;4.182;2023-05-10T12:03:27;17.40;99.90
41904;DHT22;27586;51.124;4.182;2023-05-10T12:05:57;17.30;99.90
41904;DHT22;27586;51.124;4.182;2023-05-10T12:08:26;17.30;99.90
41904;DHT22;27586;51.124;4.182;2023-05-10T12:10:53;17.30;99.90
41904;DHT22;27586;51.124;4.182;2023-05-10T12:13:19;17.20;99.90
41904;DHT22;27586;51.124;4.182;2023-05-10T12:15:46;17.20;99.90
41904;DHT22;27586;51.124;4.182;2023-05-10T12:18:12;17.30;99.90
41904;DHT22;27586;51.124;4.182;2023-05-10T12:20:39;17.30;99.90
41904;DHT22;27586;51.124;4.182;2023-05-10T12:23:07;17.20;99.90
41904;DHT22;27586;51.124;4.182;2023-05-10T12:25:34;17.20;99.90
41904;DHT22;27586;51.124;4.182;2023-05-10T12:28:03;17.10;99.90
41904;DHT22;27586;51.124;4.182;2023-05-10T12:30:30;17.10;99.90
41904;DHT22;27586;51.124;4.182;2023-05-10T12:33:10;17.00;99.90
41904;DHT22;27586;51.124;4.182;2023-05-10T12:35:47;17.00;99.90
41904;DHT22;27586;51.124;4.182;2023-05-10T12:38:37;17.00;99.90
41904;DHT22;27586;51.124;4.182;2023-05-10T12:41:08;16.90;99.90
41904;DHT22;27586;51.124;4.182;2023-05-10T12:43:35;16.90;99.90
41904;DHT22;27586;51.124;4.182;2023-05-10T12:46:12;16.90;99.90
41904;DHT22;27586;51.124;4.182;2023-05-10T12:48:39;16.90;99.90
41904;DHT22;27586;51.124;4.182;2023-05-10T12:51:05;16.90;99.90
41904;DHT22;27586;51.124;4.182;2023-05-10T12:53:33;16.60;99.90
41904;DHT22;27586;51.124;4.182;2023-05-10T12:55:59;16.50;99.90
41904;DHT22;27586;51.124;4.182;2023-05-10T12:58:25;16.30;99.90
41904;DHT22;27586;51.124;4.182;2023-05-10T13:00:51;16.40;99.90
41904;DHT22;27586;51.124;4.182;2023-05-10T13:03:17;16.40;99.90
41904;DHT22;27586;51.124;4.182;2023-05-10T13:05:43;16.30;99.90
41904;DHT22;27586;51.124;4.182;2023-05-10T13:08:09;16.30;99.90
41904;DHT22;27586;51.124;4.182;2023-05-10T13:10:34;16.30;99.90
41904;DHT22;27586;51.124;4.182;2023-05-10T13:13:00;16.30;99.90
41904;DHT22;27586;51.124;4.182;2023-05-10T13:15:26;16.20;99.90
41904;DHT22;27586;51.124;4.182;2023-05-10T13:17:53;16.30;99.90
41904;DHT22;27586;51.124;4.182;2023-05-10T13:20:18;16.30;99.90
41904;DHT22;27586;51.124;4.182;2023-05-10T13:22:44;16.10;99.90
41904;DHT22;27586;51.124;4.182;2023-05-10T13:25:10;16.20;99.90
41904;DHT22;27586;51.124;4.182;2023-05-10T13:27:37;16.20;99.90
41904;DHT22;27586;51.124;4.182;2023-05-10T13:30:03;16.20;99.90
41904;DHT22;27586;51.124;4.182;2023-05-10T13:32:29;16.10;99.90
41904;DHT22;27586;51.124;4.182;2023-05-10T13:34:55;16.20;99.90
41904;DHT22;27586;51.124;4.182;2023-05-10T13:37:21;16.30;99.90
41904;DHT22;27586;51.124;4.182;2023-05-10T13:39:47;16.20;99.90
41904;DHT22;27586;51.124;4.182;2023-05-10T13:42:13;16.20;99.90
41904;DHT22;27586;51.124;4.182;2023-05-10T13:44:39;16.30;99.90
41904;DHT22;27586;51.124;4.182;2023-05-10T13:47:05;16.30;99.90
41904;DHT22;27586;51.124;4.182;2023-05-10T13:49:31;16.40;99.90
41904;DHT22;27586;51.124;4.182;2023-05-10T13:51:57;16.40;99.90
41904;DHT22;27586;51.124;4.182;2023-05-10T13:54:24;16.60;99.90
41904;DHT22;27586;51.124;4.182;2023-05-10T13:56:49;16.60;99.90
41904;DHT22;27586;51.124;4.182;2023-05-10T13:59:15;16.70;99.90
41904;DHT22;27586;51.124;4.182;2023-05-10T14:01:41;16.90;99.90
41904;DHT22;27586;51.124;4.182;2023-05-10T14:04:08;17.00;99.90
41904;DHT22;27586;51.124;4.182;2023-05-10T14:06:36;16.90;99.90
41904;DHT22;27586;51.124;4.182;2023-05-10T14:09:03;17.00;99.90
41904;DHT22;27586;51.124;4.182;2023-05-10T14:11:29;17.00;99.90
41904;DHT22;27586;51.124;4.182;2023-05-10T14:13:54;17.00;99.90
41904;DHT22;27586;51.124;4.182;2023-05-10T14:16:21;16.80;99.90
41904;DHT22;27586;51.124;4.182;2023-05-10T14:18:46;16.70;99.90
41904;DHT22;27586;51.124;4.182;2023-05-10T14:21:12;16.60;99.90
41904;DHT22;27586;51.124;4.182;2023-05-10T14:23:38;16.50;99.90
41904;DHT22;27586;51.124;4.182;2023-05-10T14:26:04;16.40;99.90
41904;DHT22;27586;51.124;4.182;2023-05-10T14:28:30;16.00;99.90
41904;DHT22;27586;51.124;4.182;2023-05-10T14:30:56;15.80;99.90
41904;DHT22;27586;51.124;4.182;2023-05-10T14:33:21;15.50;99.90
41904;DHT22;27586;51.124;4.182;2023-05-10T14:35:47;15.30;99.90
41904;DHT22;27586;51.124;4.182;2023-05-10T14:38:14;15.10;99.90
41904;DHT22;27586;51.124;4.182;2023-05-10T14:40:39;15.10;99.90
41904;DHT22;27586;51.124;4.182;2023-05-10T14:43:05;15.00;99.90
41904;DHT22;27586;51.124;4.182;2023-05-10T14:45:31;14.90;99.90
41904;DHT22;27586;51.124;4.182;2023-05-10T14:47:57;14.80;99.90
41904;DHT22;27586;51.124;4.182;2023-05-10T14:50:23;14.70;99.90
41904;DHT22;27586;51.124;4.182;2023-05-10T14:52:48;14.70;99.90
41904;DHT22;27586;51.124;4.182;2023-05-10T14:55:14;14.70;99.90
41904;DHT22;27586;51.124;4.182;2023-05-10T14:57:40;14.70;99.90
41904;DHT22;27586;51.124;4.182;2023-05-10T15:00:06;14.70;99.90
41904;DHT22;27586;51.124;4.182;2023-05-10T15:02:32;14.70;99.90
41904;DHT22;27586;51.124;4.182;2023-05-10T15:04:58;14.70;99.90
41904;DHT22;27586;51.124;4.182;2023-05-10T15:07:24;14.60;99.90
41904;DHT22;27586;51.124;4.182;2023-05-10T15:09:52;14.60;99.90
41904;DHT22;27586;51.124;4.182;2023-05-10T15:12:19;14.70;99.90
41904;DHT22;27586;51.124;4.182;2023-05-10T15:14:45;14.60;99.90
41904;DHT22;27586;51.124;4.182;2023-05-10T15:17:11;14.60;99.90
41904;DHT22;27586;51.124;4.182;2023-05-10T15:19:37;14.60;99.90
41904;DHT22;27586;51.124;4.182;2023-05-10T15:22:04;14.50;99.90
41904;DHT22;27586;51.124;4.182;2023-05-10T15:24:30;14.40;99.90
41904;DHT22;27586;51.124;4.182;2023-05-10T15:26:56;14.50;99.90
41904;DHT22;27586;51.124;4.182;2023-05-10T15:29:22;14.60;99.90
41904;DHT22;27586;51.124;4.182;2023-05-10T15:31:48;14.50;99.90
41904;DHT22;27586;51.124;4.182;2023-05-10T15:34:14;14.60;99.90
41904;DHT22;27586;51.124;4.182;2023-05-10T15:36:39;14.60;99.90
41904;DHT22;27586;51.124;4.182;2023-05-10T15:39:05;14.60;99.90
41904;DHT22;27586;51.124;4.182;2023-05-10T15:41:31;14.60;99.90
41904;DHT22;27586;51.124;4.182;2023-05-10T15:43:57;14.60;99.90
41904;DHT22;27586;51.124;4.182;2023-05-10T15:46:25;14.60;99.90
41904;DHT22;27586;51.124;4.182;2023-05-10T15:48:51;14.60;99.90
41904;DHT22;27586;51.124;4.182;2023-05-10T15:51:17;14.60;99.90
41904;DHT22;27586;51.124;4.182;2023-05-10T15:53:44;14.60;99.90
41904;DHT22;27586;51.124;4.182;2023-05-10T15:56:10;14.60;99.90
41904;DHT22;27586;51.124;4.182;2023-05-10T15:58:37;14.40;99.90
41904;DHT22;27586;51.124;4.182;2023-05-10T16:01:03;14.20;99.90